Time;durP1;ratioP1;P1;durP2;ratioP2;P2;SDS_P1;SDS_P2;PMS_P1;PMS_P2;Temp;Humidity;BMP_temperature;BMP_pressure;BME280_temperature;BME280_humidity;BME280_pressure;Samples;Min_cycle;Max_cycle;Signal;HPM_P1;HPM_P2
2023/06/23 00:00:28;;;;;;;;;;;;;;;17.16;100.00;101703.34;12865949;23;19986;-69
2023/06/23 00:05:30;;;;;;;;;;;;;;;17.18;100.00;101694.34;12866221;23;19927;-70
2023/06/23 00:10:33;;;;;;;;;;;;;;;17.06;100.00;101697.84;12866287;23;19920;-69
2023/06/23 00:15:35;;;;;;;;;;;;;;;16.98;100.00;101701.06;12865544;23;19987;-69
2023/06/23 00:20:37;;;;;;;;;;;;;;;17.17;100.00;101695.31;12865496;23;19930;-69
2023/06/23 00:25:39;;;;;;;;;;;;;;;17.12;100.00;101704.53;12864547;23;20393;-69
2023/06/23 00:30:41;;;;;;;;;;;;;;;17.06;100.00;101709.31;12865031;23;20011;-69
2023/06/23 00:35:44;;;;;;;;;;;;;;;16.77;100.00;101721.88;12864896;23;19919;-69
2023/06/23 00:40:46;;;;;;;;;;;;;;;16.71;100.00;101739.00;12863795;23;20245;-69
2023/06/23 00:45:49;;;;;;;;;;;;;;;16.57;100.00;101733.81;12864904;23;19920;-69
2023/06/23 00:50:51;;;;;;;;;;;;;;;16.68;100.00;101739.22;12863189;23;20334;-69
2023/06/23 00:55:54;;;;;;;;;;;;;;;16.48;100.00;101752.94;12864508;23;19948;-69
2023/06/23 01:00:56;;;;;;;;;;;;;;;16.70;100.00;101745.25;12862304;23;20308;-69
2023/06/23 01:06:01;;;;;;;;;;;;;;;16.43;100.00;101755.88;12863374;23;20056;-69
2023/06/23 01:11:06;;;;;;;;;;;;;;;16.42;100.00;101777.13;12862772;23;20022;-69
2023/06/23 01:16:10;;;;;;;;;;;;;;;16.48;100.00;101780.22;12863383;23;20299;-69
2023/06/23 01:21:15;;;;;;;;;;;;;;;16.58;100.00;101784.91;12861417;23;20404;-69
2023/06/23 01:26:18;;;;;;;;;;;;;;;16.47;100.00;101793.53;12863230;23;19935;-69
2023/06/23 01:31:25;;;;;;;;;;;;;;;16.58;100.00;101796.31;12863010;23;20316;-69
2023/06/23 01:36:30;;;;;;;;;;;;;;;16.59;100.00;101795.34;12863013;23;20004;-69
2023/06/23 01:41:33;;;;;;;;;;;;;;;16.50;100.00;101803.91;12861157;23;20401;-69
2023/06/23 01:46:35;;;;;;;;;;;;;;;16.52;100.00;101813.44;12862118;23;20395;-69
2023/06/23 01:51:42;;;;;;;;;;;;;;;16.46;100.00;101824.41;12862241;23;19924;-70
2023/06/23 01:56:44;;;;;;;;;;;;;;;16.49;100.00;101824.22;12862833;23;20003;-69
2023/06/23 02:01:46;;;;;;;;;;;;;;;16.49;100.00;101823.34;12860730;23;20339;-69
2023/06/23 02:06:49;;;;;;;;;;;;;;;16.42;100.00;101822.91;12861689;23;20288;-70
2023/06/23 02:11:51;;;;;;;;;;;;;;;16.40;100.00;101839.81;12863412;23;20009;-70
2023/06/23 02:16:53;;;;;;;;;;;;;;;16.42;100.00;101843.22;12861015;23;20311;-69
2023/06/23 02:21:56;;;;;;;;;;;;;;;16.39;100.00;101849.56;12863081;23;20007;-69
2023/06/23 02:26:58;;;;;;;;;;;;;;;16.39;100.00;101848.69;12862055;23;19924;-70
2023/06/23 02:32:00;;;;;;;;;;;;;;;16.27;100.00;101850.34;12860831;23;19926;-70
2023/06/23 02:37:03;;;;;;;;;;;;;;;16.33;100.00;101858.72;12862600;23;20284;-70
2023/06/23 02:42:05;;;;;;;;;;;;;;;16.39;100.00;101859.25;12860559;23;20401;-69
2023/06/23 02:47:08;;;;;;;;;;;;;;;16.34;100.00;101870.16;12862791;23;19996;-69
2023/06/23 02:52:10;;;;;;;;;;;;;;;16.40;100.00;101882.94;12861830;23;19988;-70
2023/06/23 02:57:14;;;;;;;;;;;;;;;16.25;100.00;101892.72;12860656;23;19931;-69
2023/06/23 03:02:16;;;;;;;;;;;;;;;16.16;100.00;101909.16;12861467;23;19999;-69
2023/06/23 03:07:18;;;;;;;;;;;;;;;16.24;100.00;101909.53;12864545;23;19927;-69
2023/06/23 03:12:21;;;;;;;;;;;;;;;16.11;100.00;101927.94;12866778;23;19987;-70
2023/06/23 03:17:24;;;;;;;;;;;;;;;16.17;100.00;101939.91;12864917;23;19920;-70
2023/06/23 03:22:28;;;;;;;;;;;;;;;16.10;100.00;101946.53;12864726;23;19944;-70
2023/06/23 03:27:31;;;;;;;;;;;;;;;16.17;100.00;101942.53;12864812;23;20315;-70
2023/06/23 03:32:34;;;;;;;;;;;;;;;16.21;100.00;101948.50;12865304;23;19930;-70
2023/06/23 03:37:38;;;;;;;;;;;;;;;16.20;100.00;101950.28;12865029;23;19928;-70
2023/06/23 03:42:44;;;;;;;;;;;;;;;16.22;100.00;101960.75;12865238;23;19999;-70
2023/06/23 03:47:47;;;;;;;;;;;;;;;16.24;100.00;101964.16;12866369;23;19927;-70
2023/06/23 03:52:49;;;;;;;;;;;;;;;16.40;100.00;101958.75;12863846;23;19920;-69
2023/06/23 03:57:51;;;;;;;;;;;;;;;16.09;100.00;101977.38;12863528;23;20238;-70
2023/06/23 04:02:54;;;;;;;;;;;;;;;16.35;100.00;101970.44;12864221;23;20011;-70
2023/06/23 04:07:56;;;;;;;;;;;;;;;16.42;100.00;101970.06;12865806;23;19920;-70
2023/06/23 04:12:58;;;;;;;;;;;;;;;16.40;100.00;101970.16;12863552;23;20321;-70
2023/06/23 04:18:01;;;;;;;;;;;;;;;16.30;100.00;101975.19;12862631;23;20294;-70
2023/06/23 04:23:03;;;;;;;;;;;;;;;16.51;100.00;101974.78;12865863;23;19920;-70
2023/06/23 04:28:05;;;;;;;;;;;;;;;16.39;100.00;101979.06;12865836;23;19926;-69
2023/06/23 04:33:07;;;;;;;;;;;;;;;16.31;100.00;101992.75;12863786;23;19952;-70
2023/06/23 04:38:13;;;;;;;;;;;;;;;16.36;100.00;102003.03;12863807;23;20253;-70
2023/06/23 04:43:26;;;;;;;;;;;;;;;16.43;100.00;102016.72;12863278;23;20237;-70
2023/06/23 04:48:34;;;;;;;;;;;;;;;16.46;100.00;102020.00;12862843;23;20308;-70
2023/06/23 04:53:39;;;;;;;;;;;;;;;16.50;100.00;102042.66;12862661;23;20324;-70
2023/06/23 04:58:41;;;;;;;;;;;;;;;16.89;100.00;102049.06;12862321;23;20305;-70
2023/06/23 05:03:43;;;;;;;;;;;;;;;17.13;100.00;102035.19;12838771;23;20003;-70
2023/06/23 05:08:49;;;;;;;;;;;;;;;16.95;100.00;102050.44;12863052;23;19920;-70
2023/06/23 05:13:51;;;;;;;;;;;;;;;16.96;100.00;102059.22;12862839;23;19927;-70
2023/06/23 05:18:54;;;;;;;;;;;;;;;16.87;100.00;102063.31;12864296;23;19944;-70
2023/06/23 05:23:56;;;;;;;;;;;;;;;16.88;100.00;102071.16;12862101;23;19982;-70
2023/06/23 05:28:58;;;;;;;;;;;;;;;16.90;100.00;102071.91;12862583;23;19930;-71
2023/06/23 05:34:00;;;;;;;;;;;;;;;17.13;100.00;102081.94;12862498;23;19998;-71
2023/06/23 05:39:03;;;;;;;;;;;;;;;17.44;100.00;102086.09;12862697;23;20007;-72
2023/06/23 05:44:05;;;;;;;;;;;;;;;17.38;100.00;102079.41;12837151;23;20322;-72
2023/06/23 05:49:08;;;;;;;;;;;;;;;17.30;100.00;102079.06;12862286;23;19995;-71
2023/06/23 05:54:11;;;;;;;;;;;;;;;17.22;100.00;102095.44;12863304;23;19987;-71
2023/06/23 05:59:36;;;;;;;;;;;;;;;17.31;100.00;102101.91;12835974;23;20326;-71
2023/06/23 06:04:39;;;;;;;;;;;;;;;17.69;100.00;102108.28;12862454;23;19928;-71
2023/06/23 06:09:41;;;;;;;;;;;;;;;17.78;100.00;102110.31;12861939;23;19927;-70
2023/06/23 06:14:44;;;;;;;;;;;;;;;17.99;100.00;102122.16;12859070;23;19947;-72
2023/06/23 06:19:46;;;;;;;;;;;;;;;17.95;100.00;102118.00;12861125;23;19955;-72
2023/06/23 06:24:48;;;;;;;;;;;;;;;18.28;100.00;102115.81;12862630;23;20023;-72
2023/06/23 06:29:50;;;;;;;;;;;;;;;18.30;100.00;102125.34;12861156;23;20271;-71
2023/06/23 06:34:53;;;;;;;;;;;;;;;18.51;100.00;102127.47;12861211;23;20299;-71
2023/06/23 06:39:55;;;;;;;;;;;;;;;18.26;100.00;102130.97;12862343;23;19944;-71
2023/06/23 06:44:57;;;;;;;;;;;;;;;18.59;100.00;102141.00;12861611;23;19948;-71
2023/06/23 06:50:00;;;;;;;;;;;;;;;18.93;100.00;102134.22;12862513;23;19942;-72
2023/06/23 06:55:03;;;;;;;;;;;;;;;19.29;100.00;102144.94;12859472;23;20417;-71
2023/06/23 07:00:06;;;;;;;;;;;;;;;19.03;100.00;102144.16;12862021;23;20416;-71
2023/06/23 07:05:09;;;;;;;;;;;;;;;18.87;100.00;102150.56;12864401;23;20003;-71
2023/06/23 07:10:11;;;;;;;;;;;;;;;19.14;100.00;102148.69;12861869;23;20241;-72
2023/06/23 07:15:14;;;;;;;;;;;;;;;19.31;100.00;102153.63;12860375;23;20385;-72
2023/06/23 07:20:16;;;;;;;;;;;;;;;20.20;100.00;102149.63;12862421;23;19934;-72
2023/06/23 07:25:19;;;;;;;;;;;;;;;20.06;100.00;102152.50;12862924;23;20003;-71
2023/06/23 07:30:21;;;;;;;;;;;;;;;20.65;100.00;102170.16;12862020;23;19950;-72
2023/06/23 07:35:23;;;;;;;;;;;;;;;20.39;100.00;102162.38;12862926;23;19920;-71
2023/06/23 07:40:25;;;;;;;;;;;;;;;20.16;100.00;102164.13;12862829;23;19992;-71
2023/06/23 07:45:27;;;;;;;;;;;;;;;20.50;100.00;102155.38;12861409;23;20222;-71
2023/06/23 07:50:30;;;;;;;;;;;;;;;21.57;100.00;102145.06;12861309;23;19967;-71
2023/06/23 07:55:32;;;;;;;;;;;;;;;21.37;100.00;102155.53;12864835;23;19920;-71
2023/06/23 08:00:34;;;;;;;;;;;;;;;21.79;95.57;102150.31;12865453;23;19943;-71
2023/06/23 08:05:38;;;;;;;;;;;;;;;21.88;96.54;102154.84;12863548;23;20333;-71
2023/06/23 08:10:40;;;;;;;;;;;;;;;21.66;94.07;102147.81;12863486;23;19926;-71
2023/06/23 08:15:46;;;;;;;;;;;;;;;21.33;94.22;102159.41;12863685;23;19924;-71
2023/06/23 08:20:49;;;;;;;;;;;;;;;22.45;88.36;102168.69;12862123;23;20330;-72
2023/06/23 08:25:52;;;;;;;;;;;;;;;23.44;84.08;102168.06;12864518;23;19951;-72
2023/06/23 08:30:55;;;;;;;;;;;;;;;23.52;82.33;102175.38;12863093;23;19927;-72
2023/06/23 08:35:57;;;;;;;;;;;;;;;24.01;80.07;102178.06;12863569;23;19990;-72
2023/06/23 08:40:59;;;;;;;;;;;;;;;23.97;77.69;102182.81;12863648;23;19990;-72
2023/06/23 08:46:04;;;;;;;;;;;;;;;24.64;75.59;102188.19;12862017;23;19947;-72
2023/06/23 08:51:07;;;;;;;;;;;;;;;24.00;76.85;102177.19;12861978;23;20318;-72
2023/06/23 08:56:09;;;;;;;;;;;;;;;23.73;75.32;102180.56;12862942;23;20390;-72
2023/06/23 09:01:12;;;;;;;;;;;;;;;24.74;70.20;102188.16;12865328;23;19987;-73
2023/06/23 09:06:14;;;;;;;;;;;;;;;25.09;71.33;102202.66;12863002;23;20396;-72
2023/06/23 09:11:16;;;;;;;;;;;;;;;24.65;69.38;102208.63;12862393;23;19987;-73
2023/06/23 09:16:18;;;;;;;;;;;;;;;24.86;66.59;102213.75;12863099;23;19920;-73
2023/06/23 09:21:20;;;;;;;;;;;;;;;25.30;67.90;102218.47;12864852;23;19920;-73
2023/06/23 09:26:23;;;;;;;;;;;;;;;25.61;65.75;102226.19;12862653;23;20328;-74
2023/06/23 09:31:25;;;;;;;;;;;;;;;26.27;63.16;102227.59;12863869;23;19990;-73
2023/06/23 09:36:32;;;;;;;;;;;;;;;26.54;62.79;102221.22;12861390;23;19927;-73
2023/06/23 09:41:35;;;;;;;;;;;;;;;26.82;65.24;102229.97;12862144;23;19920;-75
2023/06/23 09:46:59;;;;;;;;;;;;;;;26.81;60.09;102232.81;12863582;23;19920;-75
2023/06/23 09:52:01;;;;;;;;;;;;;;;26.65;62.42;102236.28;12862847;23;19954;-75
2023/06/23 09:57:07;;;;;;;;;;;;;;;26.83;61.44;102239.72;12862623;23;19926;-75
2023/06/23 10:02:09;;;;;;;;;;;;;;;27.36;61.47;102240.44;12863205;23;20388;-75
2023/06/23 10:07:20;;;;;;;;;;;;;;;27.33;57.82;102242.63;12862583;23;19999;-75
2023/06/23 10:12:23;;;;;;;;;;;;;;;27.67;60.74;102237.16;12899371;22;19943;-63
2023/06/23 10:17:25;;;;;;;;;;;;;;;27.47;58.96;102233.06;12900062;23;19982;-64
2023/06/23 10:22:28;;;;;;;;;;;;;;;27.76;58.29;102236.13;12925641;23;20316;-64
2023/06/23 10:27:30;;;;;;;;;;;;;;;27.09;57.98;102230.75;12926422;23;19962;-64
2023/06/23 10:32:33;;;;;;;;;;;;;;;28.29;57.16;102227.72;12898928;23;19919;-64
2023/06/23 10:37:36;;;;;;;;;;;;;;;28.59;56.78;102223.47;12925502;23;19982;-64
2023/06/23 10:42:50;;;;;;;;;;;;;;;27.22;57.04;102231.13;12926040;23;19974;-64
2023/06/23 10:47:52;;;;;;;;;;;;;;;27.90;55.26;102231.09;12925293;23;19926;-63
2023/06/23 10:52:54;;;;;;;;;;;;;;;28.33;53.94;102227.22;12899567;23;19920;-64
2023/06/23 10:58:18;;;;;;;;;;;;;;;29.47;52.54;102226.94;12926012;23;19920;-64
2023/06/23 11:03:28;;;;;;;;;;;;;;;28.64;51.86;102226.47;12925877;23;19958;-63
2023/06/23 11:08:34;;;;;;;;;;;;;;;29.12;52.59;102226.47;12925873;23;19950;-63
2023/06/23 11:13:45;;;;;;;;;;;;;;;27.51;50.26;102234.44;12925011;23;19991;-64
2023/06/23 11:18:48;;;;;;;;;;;;;;;29.39;49.39;102230.56;12925945;23;19991;-63
2023/06/23 11:24:09;;;;;;;;;;;;;;;30.15;46.61;102210.91;12924247;23;19943;-63
2023/06/23 11:29:12;;;;;;;;;;;;;;;30.20;47.19;102228.22;12925962;23;20416;-64
2023/06/23 11:34:14;;;;;;;;;;;;;;;30.32;47.02;102227.78;12929831;23;19920;-64
2023/06/23 11:39:17;;;;;;;;;;;;;;;29.93;44.47;102245.88;12902614;23;19938;-64
2023/06/23 11:44:20;;;;;;;;;;;;;;;29.47;47.71;102251.22;12928022;23;19926;-64
2023/06/23 11:49:23;;;;;;;;;;;;;;;27.74;49.24;102253.44;12929459;23;19947;-63
2023/06/23 11:54:25;;;;;;;;;;;;;;;29.64;47.70;102254.69;12928367;23;19991;-64
2023/06/23 11:59:32;;;;;;;;;;;;;;;30.02;46.07;102252.84;12929295;23;19927;-63
2023/06/23 12:04:39;;;;;;;;;;;;;;;28.14;48.62;102246.41;12928802;23;19919;-63
2023/06/23 12:09:41;;;;;;;;;;;;;;;28.54;49.49;102236.59;12902701;23;19956;-64
2023/06/23 12:14:44;;;;;;;;;;;;;;;28.61;46.39;102243.00;12928310;23;19958;-64
2023/06/23 12:19:46;;;;;;;;;;;;;;;30.13;47.72;102240.78;12927916;23;19974;-63
2023/06/23 12:24:49;;;;;;;;;;;;;;;30.91;45.64;102240.47;12927080;23;20325;-64
2023/06/23 12:29:51;;;;;;;;;;;;;;;30.34;44.36;102239.25;12927595;23;19920;-64
2023/06/23 12:34:54;;;;;;;;;;;;;;;30.62;43.61;102233.25;12928591;23;19919;-63
2023/06/23 12:39:56;;;;;;;;;;;;;;;31.28;42.24;102244.91;12927101;23;19919;-65
2023/06/23 12:44:59;;;;;;;;;;;;;;;29.63;40.83;102245.72;12926960;23;20010;-65
2023/06/23 12:50:10;;;;;;;;;;;;;;;29.50;42.63;102240.06;12900156;23;20313;-65
2023/06/23 12:55:15;;;;;;;;;;;;;;;29.08;43.81;102246.69;12899433;23;19973;-64
2023/06/23 13:00:19;;;;;;;;;;;;;;;30.96;43.17;102240.78;12924867;23;20336;-65
2023/06/23 13:05:21;;;;;;;;;;;;;;;29.53;43.32;102237.03;12898110;23;20054;-64
2023/06/23 13:10:26;;;;;;;;;;;;;;;30.52;42.57;102233.50;12926503;23;19969;-65
2023/06/23 13:15:31;;;;;;;;;;;;;;;30.68;42.70;102232.47;12924826;23;20265;-64
2023/06/23 13:20:34;;;;;;;;;;;;;;;29.73;42.46;102240.09;12926618;23;19920;-65
2023/06/23 13:25:36;;;;;;;;;;;;;;;28.54;45.21;102244.66;12925937;23;19923;-64
2023/06/23 13:30:39;;;;;;;;;;;;;;;30.74;43.27;102240.66;12925604;23;19946;-64
2023/06/23 13:35:41;;;;;;;;;;;;;;;28.32;45.60;102244.38;12924854;23;19955;-64
2023/06/23 13:40:43;;;;;;;;;;;;;;;28.47;46.25;102230.22;12926611;23;19923;-65
2023/06/23 13:45:45;;;;;;;;;;;;;;;28.83;44.27;102236.03;12926034;23;19998;-64
2023/06/23 13:50:48;;;;;;;;;;;;;;;27.42;47.30;102233.56;12926922;23;19927;-64
2023/06/23 13:55:50;;;;;;;;;;;;;;;27.82;48.64;102244.53;12923013;23;20403;-64
2023/06/23 14:00:53;;;;;;;;;;;;;;;27.64;47.75;102231.22;12899040;23;19920;-64
2023/06/23 14:05:55;;;;;;;;;;;;;;;28.27;47.51;102233.28;12924072;23;20252;-65
2023/06/23 14:10:58;;;;;;;;;;;;;;;29.06;48.04;102225.28;12925235;23;19920;-65
2023/06/23 14:16:00;;;;;;;;;;;;;;;27.42;46.67;102230.88;12921866;23;19933;-64
2023/06/23 14:21:05;;;;;;;;;;;;;;;29.30;47.75;102228.91;12905016;23;19923;-65
2023/06/23 14:26:08;;;;;;;;;;;;;;;28.64;45.99;102222.97;12908930;23;20332;-65
2023/06/23 14:31:10;;;;;;;;;;;;;;;29.34;44.99;102224.03;12922925;23;19923;-65
2023/06/23 14:36:12;;;;;;;;;;;;;;;29.37;45.61;102232.59;12925377;23;19919;-67
2023/06/23 14:41:15;;;;;;;;;;;;;;;29.52;42.92;102223.72;12925428;23;19986;-68
2023/06/23 14:46:17;;;;;;;;;;;;;;;29.90;43.09;102234.59;12924226;23;19998;-65
2023/06/23 14:51:20;;;;;;;;;;;;;;;28.30;45.51;102229.41;12924449;23;19990;-65
2023/06/23 14:56:24;;;;;;;;;;;;;;;29.81;42.24;102231.13;12898333;23;19974;-65
2023/06/23 15:01:26;;;;;;;;;;;;;;;30.38;43.38;102238.72;12925544;23;19926;-65
2023/06/23 15:06:29;;;;;;;;;;;;;;;30.53;42.93;102240.56;12923678;23;19919;-65
2023/06/23 15:11:32;;;;;;;;;;;;;;;29.83;42.22;102234.47;12924746;23;20003;-65
2023/06/23 15:16:34;;;;;;;;;;;;;;;29.53;41.38;102233.50;12925206;23;19919;-64
2023/06/23 15:21:36;;;;;;;;;;;;;;;29.81;42.92;102239.22;12924966;23;19986;-64
2023/06/23 15:26:39;;;;;;;;;;;;;;;29.44;41.53;102230.84;12924658;23;19919;-64
2023/06/23 15:31:41;;;;;;;;;;;;;;;30.50;43.26;102236.41;12924615;23;20380;-65
2023/06/23 15:36:43;;;;;;;;;;;;;;;29.66;42.20;102239.13;12924241;23;19973;-65
2023/06/23 15:41:45;;;;;;;;;;;;;;;29.71;42.05;102241.31;12923813;23;19945;-65
2023/06/23 15:46:48;;;;;;;;;;;;;;;28.65;45.24;102243.50;12924206;23;19919;-65
2023/06/23 15:51:50;;;;;;;;;;;;;;;27.67;45.99;102249.72;12871831;23;20363;-65
2023/06/23 15:56:52;;;;;;;;;;;;;;;27.93;46.07;102250.47;12923887;23;19946;-65
2023/06/23 16:01:54;;;;;;;;;;;;;;;27.60;46.44;102249.56;12924257;23;19920;-65
2023/06/23 16:06:56;;;;;;;;;;;;;;;27.00;47.16;102245.16;12923719;23;20240;-65
2023/06/23 16:11:59;;;;;;;;;;;;;;;27.09;47.53;102252.25;12925095;23;19920;-65
2023/06/23 16:17:01;;;;;;;;;;;;;;;28.45;45.07;102240.31;12928042;23;19990;-65
2023/06/23 16:22:04;;;;;;;;;;;;;;;28.76;45.76;102243.13;12927616;23;19998;-65
2023/06/23 16:27:07;;;;;;;;;;;;;;;27.55;47.00;102243.84;12927017;23;20003;-65
2023/06/23 16:32:09;;;;;;;;;;;;;;;27.72;47.47;102253.63;12927470;23;20333;-65
2023/06/23 16:37:12;;;;;;;;;;;;;;;27.43;45.51;102251.38;12927046;23;19920;-65
2023/06/23 16:42:14;;;;;;;;;;;;;;;27.71;46.44;102259.16;12927719;23;19920;-65
2023/06/23 16:47:16;;;;;;;;;;;;;;;26.94;46.52;102253.88;12928102;23;20002;-66
2023/06/23 16:52:18;;;;;;;;;;;;;;;27.64;46.18;102260.81;12927274;23;19919;-65
2023/06/23 16:57:23;;;;;;;;;;;;;;;27.56;46.52;102270.56;12927704;23;19995;-66
2023/06/23 17:02:25;;;;;;;;;;;;;;;27.36;47.54;102272.69;12927183;23;20015;-65
2023/06/23 17:07:27;;;;;;;;;;;;;;;28.10;47.76;102272.84;12926904;23;20002;-66
2023/06/23 17:12:30;;;;;;;;;;;;;;;27.05;48.59;102264.34;12899666;23;19970;-64
2023/06/23 17:17:32;;;;;;;;;;;;;;;27.11;47.79;102265.53;12927326;23;19919;-65
2023/06/23 17:22:34;;;;;;;;;;;;;;;27.43;47.65;102273.72;12927117;23;19942;-65
2023/06/23 17:27:37;;;;;;;;;;;;;;;27.02;47.08;102260.13;12925702;23;19942;-65
2023/06/23 17:32:39;;;;;;;;;;;;;;;26.95;48.49;102252.84;12926169;23;19934;-65
2023/06/23 17:37:41;;;;;;;;;;;;;;;26.71;48.62;102258.94;12925646;23;19927;-65
2023/06/23 17:42:43;;;;;;;;;;;;;;;26.47;47.86;102265.81;12899749;23;19926;-68
2023/06/23 17:47:46;;;;;;;;;;;;;;;26.40;47.71;102270.16;12926014;23;19926;-65
2023/06/23 17:52:49;;;;;;;;;;;;;;;26.16;48.66;102270.78;12925906;23;19928;-65
2023/06/23 17:57:51;;;;;;;;;;;;;;;26.04;49.79;102276.41;12898445;23;20023;-65
2023/06/23 18:02:54;;;;;;;;;;;;;;;26.11;49.46;102282.00;12925156;23;20325;-65
2023/06/23 18:07:56;;;;;;;;;;;;;;;25.81;50.97;102286.72;12925372;23;19974;-65
2023/06/23 18:12:58;;;;;;;;;;;;;;;25.54;52.83;102277.75;12898365;23;19931;-65
2023/06/23 18:18:00;;;;;;;;;;;;;;;25.57;52.64;102281.94;12925530;23;19920;-65
2023/06/23 18:23:03;;;;;;;;;;;;;;;25.20;52.68;102281.00;12925534;23;19970;-65
2023/06/23 18:28:05;;;;;;;;;;;;;;;25.03;55.79;102277.28;12898610;23;19995;-65
2023/06/23 18:33:07;;;;;;;;;;;;;;;25.00;57.38;102282.94;12925584;23;19987;-64
2023/06/23 18:38:09;;;;;;;;;;;;;;;24.22;61.88;102279.56;12898263;23;19920;-64
2023/06/23 18:43:12;;;;;;;;;;;;;;;23.83;63.86;102287.56;12924993;23;19923;-64
2023/06/23 18:48:14;;;;;;;;;;;;;;;23.61;65.55;102294.81;12924744;23;19926;-64
2023/06/23 18:53:16;;;;;;;;;;;;;;;23.34;66.96;102288.28;12899517;23;19923;-64
2023/06/23 18:58:18;;;;;;;;;;;;;;;22.95;69.07;102292.59;12924327;23;20007;-63
2023/06/23 19:03:21;;;;;;;;;;;;;;;22.73;71.25;102294.44;12898130;23;19920;-64
2023/06/23 19:08:23;;;;;;;;;;;;;;;;;;12924582;23;19966;-64
2023/06/23 19:13:28;;;;;;;;;;;;;;;22.42;73.77;102296.22;12923211;23;21275;-64
2023/06/23 19:18:30;;;;;;;;;;;;;;;22.15;72.99;102310.00;12924917;23;19946;-64
2023/06/23 19:23:32;;;;;;;;;;;;;;;22.21;74.45;102312.19;12924981;23;19943;-64
2023/06/23 19:28:34;;;;;;;;;;;;;;;22.20;74.59;102316.66;12925054;23;19987;-63
2023/06/23 19:33:37;;;;;;;;;;;;;;;21.83;76.89;102324.16;12924574;23;19990;-63
2023/06/23 19:38:39;;;;;;;;;;;;;;;21.75;78.32;102331.94;12898078;23;19920;-64
2023/06/23 19:43:41;;;;;;;;;;;;;;;21.77;76.67;102337.97;12897155;23;20392;-64
2023/06/23 19:48:43;;;;;;;;;;;;;;;21.49;79.19;102335.72;12925860;23;20006;-64
2023/06/23 19:53:46;;;;;;;;;;;;;;;21.32;80.25;102347.69;12900472;23;20297;-63
2023/06/23 19:58:49;;;;;;;;;;;;;;;21.14;81.26;102346.47;12928648;23;20002;-64
2023/06/23 20:03:51;;;;;;;;;;;;;;;20.92;81.87;102347.28;12928428;23;20002;-64
2023/06/23 20:08:55;;;;;;;;;;;;;;;20.69;84.36;102354.38;12928241;23;20222;-63
2023/06/23 20:13:58;;;;;;;;;;;;;;;20.60;84.93;102361.22;12928158;23;20276;-63
2023/06/23 20:19:01;;;;;;;;;;;;;;;20.44;84.28;102361.50;12928212;23;19955;-63
2023/06/23 20:24:03;;;;;;;;;;;;;;;20.27;85.80;102362.75;12928831;23;19919;-63
2023/06/23 20:29:05;;;;;;;;;;;;;;;19.94;85.85;102360.75;12927964;23;19919;-63
2023/06/23 20:34:07;;;;;;;;;;;;;;;19.84;87.41;102368.56;12901465;23;19966;-63
2023/06/23 20:39:10;;;;;;;;;;;;;;;19.79;88.44;102368.88;12928663;23;19986;-63
2023/06/23 20:44:12;;;;;;;;;;;;;;;19.65;90.02;102367.19;12901960;23;19924;-64
2023/06/23 20:49:14;;;;;;;;;;;;;;;19.64;91.29;102359.31;12899034;23;19991;-64
2023/06/23 20:54:17;;;;;;;;;;;;;;;19.50;93.83;102362.94;12901032;23;20292;-64
2023/06/23 20:59:19;;;;;;;;;;;;;;;19.53;93.42;102353.91;12926327;23;19926;-64
2023/06/23 21:04:21;;;;;;;;;;;;;;;19.24;94.34;102360.31;12927745;23;19974;-64
2023/06/23 21:09:23;;;;;;;;;;;;;;;19.14;94.39;102358.41;12928045;23;19920;-63
2023/06/23 21:14:26;;;;;;;;;;;;;;;19.14;94.82;102358.41;12925759;23;19986;-64
2023/06/23 21:19:30;;;;;;;;;;;;;;;19.10;95.28;102347.16;12900505;23;19939;-63
2023/06/23 21:24:32;;;;;;;;;;;;;;;18.84;97.28;102352.44;12927741;23;20006;-63
2023/06/23 21:29:34;;;;;;;;;;;;;;;18.71;99.16;102340.91;12927583;23;19990;-63
2023/06/23 21:34:37;;;;;;;;;;;;;;;18.63;99.09;102341.44;12927582;23;19986;-63
2023/06/23 21:39:39;;;;;;;;;;;;;;;18.71;98.30;102343.56;12927454;23;19920;-63
2023/06/23 21:44:41;;;;;;;;;;;;;;;18.73;98.60;102337.22;12927240;23;20006;-63
2023/06/23 21:49:43;;;;;;;;;;;;;;;19.00;95.99;102341.63;12926353;23;19920;-64
2023/06/23 21:54:47;;;;;;;;;;;;;;;18.78;95.71;102338.69;12927150;23;19986;-63
2023/06/23 21:59:49;;;;;;;;;;;;;;;18.78;98.07;102346.66;12926234;23;19919;-64
2023/06/23 22:04:53;;;;;;;;;;;;;;;18.79;99.86;102343.91;12926052;23;20420;-64
2023/06/23 22:09:55;;;;;;;;;;;;;;;18.43;100.00;102347.25;12926186;23;20322;-63
2023/06/23 22:14:58;;;;;;;;;;;;;;;18.69;100.00;102353.44;12925670;23;19919;-64
2023/06/23 22:20:00;;;;;;;;;;;;;;;18.53;100.00;102359.78;12925865;23;20364;-63
2023/06/23 22:25:02;;;;;;;;;;;;;;;18.48;100.00;102367.19;12938300;22;19989;-64
2023/06/23 22:30:05;;;;;;;;;;;;;;;18.36;100.00;102366.19;13053288;22;20324;-64
2023/06/23 22:35:08;;;;;;;;;;;;;;;18.57;100.00;102360.41;13053880;22;19919;-64
2023/06/23 22:40:11;;;;;;;;;;;;;;;18.66;100.00;102356.28;13053854;22;19922;-64
2023/06/23 22:45:13;;;;;;;;;;;;;;;18.26;100.00;102358.97;13052847;22;20340;-64
2023/06/23 22:50:15;;;;;;;;;;;;;;;18.40;100.00;102363.34;13052855;22;19954;-64
2023/06/23 22:55:17;;;;;;;;;;;;;;;18.22;100.00;102365.41;13052799;22;20247;-64
2023/06/23 23:00:20;;;;;;;;;;;;;;;18.35;100.00;102361.00;13052756;22;20308;-64
2023/06/23 23:05:22;;;;;;;;;;;;;;;18.29;100.00;102359.59;13052622;22;19993;-64
2023/06/23 23:10:24;;;;;;;;;;;;;;;18.12;100.00;102360.72;13052658;22;19925;-64
2023/06/23 23:15:26;;;;;;;;;;;;;;;18.27;100.00;102350.03;13025650;22;19945;-64
2023/06/23 23:20:28;;;;;;;;;;;;;;;18.08;100.00;102355.69;13053283;22;19919;-64
2023/06/23 23:25:31;;;;;;;;;;;;;;;18.15;100.00;102359.63;13029873;22;19946;-64
2023/06/23 23:30:34;;;;;;;;;;;;;;;18.13;100.00;102353.59;13056756;22;20410;-64
2023/06/23 23:35:38;;;;;;;;;;;;;;;18.20;100.00;102350.44;13056655;22;19918;-64
2023/06/23 23:40:41;;;;;;;;;;;;;;;18.30;100.00;102341.88;13057315;22;20013;-64
2023/06/23 23:45:44;;;;;;;;;;;;;;;18.52;100.00;102336.84;13056390;22;19923;-64
2023/06/23 23:50:46;;;;;;;;;;;;;;;18.38;100.00;102342.25;13057174;22;19926;-64
2023/06/23 23:55:48;;;;;;;;;;;;;;;18.16;100.00;102338.34;13056330;22;20351;-64
